createdAt,value
2022-08-19T00:00:11.075Z,4.38
2022-08-19T00:00:22.554Z,4.57
2022-08-19T00:00:36.681Z,4.65
2022-08-19T00:00:48.095Z,4.40
2022-08-19T00:00:59.530Z,3.63
2022-08-19T00:01:11.212Z,4.68
2022-08-19T00:01:28.879Z,4.97
2022-08-19T00:01:44.820Z,5.97
2022-08-19T00:02:04.433Z,6.25
2022-08-19T00:02:15.844Z,6.73
2022-08-19T00:02:27.248Z,6.75
2022-08-19T00:02:38.670Z,6.28
2022-08-19T00:03:01.621Z,9.00
2022-08-19T00:03:12.995Z,10.07
2022-08-19T00:03:24.393Z,8.27
2022-08-19T00:03:35.798Z,6.20
2022-08-19T00:03:47.529Z,7.18
2022-08-19T00:04:00.728Z,8.15
2022-08-19T00:04:15.127Z,6.03
2022-08-19T00:04:31.326Z,6.60
2022-08-19T00:04:42.851Z,6.30
2022-08-19T00:04:54.337Z,3.95
2022-08-19T00:05:06.120Z,4.25
2022-08-19T00:05:18.824Z,5.30
2022-08-19T00:05:30.317Z,5.63
2022-08-19T00:05:41.751Z,5.20
2022-08-19T00:05:53.179Z,4.28
2022-08-19T00:06:04.758Z,5.30
2022-08-19T00:06:16.423Z,5.82
2022-08-19T00:06:32.410Z,6.72
2022-08-19T00:06:45.649Z,6.38
2022-08-19T00:06:57.611Z,7.07
2022-08-19T00:07:09.076Z,8.20
2022-08-19T00:07:20.597Z,7.78
2022-08-19T00:07:32.125Z,7.97
2022-08-19T00:07:44.136Z,5.75
2022-08-19T00:07:55.601Z,6.30
2022-08-19T00:08:07.007Z,6.70
2022-08-19T00:08:18.389Z,7.28
2022-08-19T00:08:29.874Z,7.45
2022-08-19T00:08:42.943Z,7.45
2022-08-19T00:08:54.548Z,8.00
2022-08-19T00:09:08.362Z,9.63
2022-08-19T00:09:21.922Z,8.43
2022-08-19T00:09:33.619Z,6.00
2022-08-19T00:09:45.308Z,7.20
2022-08-19T00:09:56.736Z,8.20
2022-08-19T00:10:14.587Z,5.90
2022-08-19T00:10:26.025Z,5.57
2022-08-19T00:10:37.485Z,7.00
2022-08-19T00:10:48.879Z,7.03
2022-08-19T00:11:00.302Z,4.32
2022-08-19T00:11:12.299Z,6.43
2022-08-19T00:11:30.351Z,6.82
2022-08-19T00:11:42.568Z,4.63
2022-08-19T00:11:55.408Z,5.25
2022-08-19T00:12:07.022Z,9.18
2022-08-19T00:12:18.462Z,9.80
2022-08-19T00:12:29.969Z,8.88
2022-08-19T00:12:47.036Z,6.78
2022-08-19T00:12:58.627Z,7.72
2022-08-19T00:13:10.057Z,5.88
2022-08-19T00:13:21.456Z,4.57
2022-08-19T00:13:32.906Z,5.28
2022-08-19T00:13:44.478Z,5.88
2022-08-19T00:13:56.972Z,5.03
2022-08-19T00:14:10.310Z,4.70
2022-08-19T00:14:22.359Z,4.95
2022-08-19T00:14:33.809Z,3.92
2022-08-19T00:14:45.242Z,5.45
2022-08-19T00:14:56.664Z,6.45
2022-08-19T00:15:11.844Z,6.68
2022-08-19T00:15:24.599Z,4.70
2022-08-19T00:15:36.009Z,6.57
2022-08-19T00:15:47.395Z,7.57
2022-08-19T00:15:58.830Z,6.43
2022-08-19T00:16:10.402Z,5.82
2022-08-19T00:16:25.345Z,5.05
2022-08-19T00:16:40.091Z,5.43
2022-08-19T00:16:51.651Z,6.47
2022-08-19T00:17:04.085Z,6.70
2022-08-19T00:17:15.538Z,7.73
2022-08-19T00:17:27.073Z,7.38
2022-08-19T00:17:44.030Z,7.13
2022-08-19T00:17:55.582Z,7.10
2022-08-19T00:18:06.997Z,5.00
2022-08-19T00:18:18.400Z,5.20
2022-08-19T00:18:29.844Z,4.72
2022-08-19T00:18:41.361Z,5.25
2022-08-19T00:18:53.056Z,4.75
2022-08-19T00:19:04.784Z,5.25
2022-08-19T00:19:17.323Z,6.00
2022-08-19T00:19:29.181Z,7.40
2022-08-19T00:19:40.962Z,9.32
2022-08-19T00:19:52.442Z,7.72
2022-08-19T00:20:04.548Z,8.02
2022-08-19T00:20:19.522Z,6.40
2022-08-19T00:20:31.003Z,5.63
2022-08-19T00:20:42.374Z,5.57
2022-08-19T00:20:53.999Z,6.35
2022-08-19T00:21:05.608Z,8.02
2022-08-19T00:21:19.831Z,7.72
2022-08-19T00:21:31.389Z,7.13
2022-08-19T00:21:43.014Z,7.13
2022-08-19T00:21:54.428Z,7.93
2022-08-19T00:22:06.278Z,7.65
2022-08-19T00:22:17.730Z,9.55
2022-08-19T00:22:30.774Z,8.45
2022-08-19T00:22:42.155Z,8.18
2022-08-19T00:22:53.628Z,7.18
2022-08-19T00:23:05.204Z,7.70
2022-08-19T00:23:16.705Z,8.18
2022-08-19T00:23:28.094Z,9.13
2022-08-19T00:23:39.584Z,8.38
2022-08-19T00:23:50.995Z,7.38
2022-08-19T00:24:02.521Z,5.85
2022-08-19T00:24:15.537Z,5.68
2022-08-19T00:24:27.210Z,8.55
2022-08-19T00:24:39.018Z,10.30
2022-08-19T00:24:51.039Z,11.07
2022-08-19T00:25:03.466Z,7.88
2022-08-19T00:25:16.295Z,7.72
2022-08-19T00:25:30.522Z,6.55
2022-08-19T00:25:42.398Z,5.95
2022-08-19T00:25:53.985Z,7.43
2022-08-19T00:26:06.909Z,8.15
2022-08-19T00:26:18.368Z,9.90
2022-08-19T00:26:29.794Z,9.18
2022-08-19T00:26:43.236Z,7.45
2022-08-19T00:26:54.592Z,7.13
2022-08-19T00:27:26.402Z,7.28
2022-08-19T00:27:37.738Z,6.80
2022-08-19T00:27:49.136Z,5.97
2022-08-19T00:28:00.557Z,5.57
2022-08-19T00:28:12.082Z,8.35
2022-08-19T00:28:23.508Z,8.57
2022-08-19T00:28:35.135Z,7.20
2022-08-19T00:28:47.575Z,6.50
2022-08-19T00:28:58.981Z,7.18
2022-08-19T00:29:12.359Z,7.45
2022-08-19T00:29:25.802Z,7.45
2022-08-19T00:29:37.183Z,6.90
2022-08-19T00:29:52.204Z,7.97
2022-08-19T00:30:06.917Z,9.47
2022-08-19T00:30:18.317Z,10.75
2022-08-19T00:30:29.732Z,9.57
2022-08-19T00:30:41.150Z,8.57
2022-08-19T00:30:52.529Z,7.53
2022-08-19T00:31:05.685Z,7.97
2022-08-19T00:31:17.753Z,8.75
2022-08-19T00:31:29.140Z,11.50
2022-08-19T00:31:41.320Z,10.43
2022-08-19T00:31:54.523Z,7.22
2022-08-19T00:32:06.488Z,10.05
2022-08-19T00:32:22.305Z,9.68
2022-08-19T00:32:35.321Z,8.00
2022-08-19T00:32:46.890Z,9.60
2022-08-19T00:32:58.871Z,10.27
2022-08-19T00:33:10.405Z,9.90
2022-08-19T00:33:22.059Z,8.57
2022-08-19T00:33:34.105Z,6.80
2022-08-19T00:33:45.574Z,6.50
2022-08-19T00:33:56.981Z,7.53
2022-08-19T00:34:08.422Z,9.32
2022-08-19T00:34:20.114Z,10.45
2022-08-19T00:34:31.641Z,10.07
2022-08-19T00:34:43.314Z,10.55
2022-08-19T00:34:54.724Z,8.55
2022-08-19T00:35:06.621Z,9.60
2022-08-19T00:35:18.032Z,12.02
2022-08-19T00:35:29.521Z,15.43
2022-08-19T00:35:40.920Z,17.27
2022-08-19T00:35:56.000Z,12.20
2022-08-19T00:36:08.672Z,7.55
2022-08-19T00:36:20.294Z,6.90
2022-08-19T00:36:31.763Z,7.18
2022-08-19T00:36:43.724Z,8.43
2022-08-19T00:36:56.598Z,8.82
2022-08-19T00:37:07.980Z,8.13
2022-08-19T00:37:24.833Z,6.30
2022-08-19T00:37:36.285Z,6.63
2022-08-19T00:37:50.194Z,8.70
2022-08-19T00:38:01.596Z,10.13
2022-08-19T00:38:13.005Z,7.95
2022-08-19T00:38:35.068Z,7.97
2022-08-19T00:38:49.082Z,7.32
2022-08-19T00:39:01.190Z,8.23
2022-08-19T00:39:14.109Z,8.73
2022-08-19T00:39:27.968Z,8.43
2022-08-19T00:39:39.419Z,9.38
2022-08-19T00:39:51.285Z,7.35
2022-08-19T00:40:07.735Z,6.65
2022-08-19T00:40:19.299Z,9.90
2022-08-19T00:40:30.766Z,10.27
2022-08-19T00:40:44.546Z,8.23
2022-08-19T00:40:56.702Z,6.68
2022-08-19T00:41:09.426Z,9.07
2022-08-19T00:41:24.161Z,10.27
2022-08-19T00:41:35.739Z,8.90
2022-08-19T00:41:49.291Z,6.80
2022-08-19T00:42:00.698Z,5.78
2022-08-19T00:42:12.103Z,6.07
2022-08-19T00:42:23.994Z,6.72
2022-08-19T00:42:35.501Z,7.95
2022-08-19T00:42:47.825Z,7.80
2022-08-19T00:42:59.409Z,7.55
2022-08-19T00:43:12.172Z,7.78
2022-08-19T00:43:25.721Z,7.88
2022-08-19T00:43:37.131Z,7.30
2022-08-19T00:44:07.484Z,7.47
2022-08-19T00:44:27.046Z,7.00
2022-08-19T00:44:38.769Z,8.88
2022-08-19T00:44:50.457Z,9.02
2022-08-19T00:45:02.458Z,8.10
2022-08-19T00:45:21.092Z,7.47
2022-08-19T00:45:32.486Z,9.60
2022-08-19T00:45:47.990Z,10.20
2022-08-19T00:45:59.417Z,8.52
2022-08-19T00:46:10.894Z,9.60
2022-08-19T00:46:22.323Z,9.00
2022-08-19T00:46:36.737Z,9.73
2022-08-19T00:46:55.621Z,9.15
2022-08-19T00:47:14.136Z,8.05
2022-08-19T00:47:25.879Z,7.45
2022-08-19T00:47:37.297Z,7.70
2022-08-19T00:47:49.592Z,7.35
2022-08-19T00:48:01.431Z,7.03
2022-08-19T00:48:14.879Z,7.07
2022-08-19T00:48:26.717Z,7.25
2022-08-19T00:48:38.200Z,8.48
2022-08-19T00:48:49.621Z,8.43
2022-08-19T00:49:06.944Z,7.43
2022-08-19T00:49:26.706Z,6.13
2022-08-19T00:49:48.286Z,8.75
2022-08-19T00:50:00.581Z,8.40
2022-08-19T00:50:15.922Z,7.53
2022-08-19T00:50:27.352Z,9.07
2022-08-19T00:50:51.903Z,8.90
2022-08-19T00:51:05.205Z,7.82
2022-08-19T00:51:16.724Z,9.63
2022-08-19T00:51:31.033Z,10.77
2022-08-19T00:51:45.059Z,8.50
2022-08-19T00:52:12.464Z,9.25
2022-08-19T00:52:31.832Z,8.73
2022-08-19T00:52:47.770Z,9.23
2022-08-19T00:52:59.335Z,8.95
2022-08-19T00:53:12.817Z,8.45
2022-08-19T00:53:28.322Z,9.32
2022-08-19T00:53:39.684Z,10.80
2022-08-19T00:53:51.142Z,10.57
2022-08-19T00:54:03.346Z,10.45
2022-08-19T00:54:16.605Z,8.23
2022-08-19T00:54:31.286Z,8.07
2022-08-19T00:54:43.216Z,8.48
2022-08-19T00:54:54.709Z,7.35
2022-08-19T00:55:09.349Z,8.00
2022-08-19T00:55:24.299Z,7.38
2022-08-19T00:55:35.891Z,8.52
2022-08-19T00:55:51.471Z,11.23
2022-08-19T00:56:03.753Z,12.20
2022-08-19T00:56:15.308Z,11.57
2022-08-19T00:56:26.945Z,9.70
2022-08-19T00:56:38.971Z,8.55
2022-08-19T00:56:54.242Z,7.22
2022-08-19T00:57:17.772Z,8.95
2022-08-19T00:57:35.898Z,11.55
2022-08-19T00:57:53.931Z,9.30
2022-08-19T00:58:10.888Z,8.20
2022-08-19T00:58:27.487Z,7.97
2022-08-19T00:58:38.954Z,10.98
2022-08-19T00:58:50.772Z,11.50
2022-08-19T00:59:03.520Z,7.80
2022-08-19T00:59:17.114Z,6.82
2022-08-19T00:59:58.753Z,8.88
2022-08-19T01:00:19.102Z,8.73
2022-08-19T01:00:32.034Z,9.25
2022-08-19T01:00:43.446Z,10.57
2022-08-19T01:00:55.312Z,11.48
2022-08-19T01:01:06.732Z,11.18
2022-08-19T01:01:18.360Z,8.45
2022-08-19T01:01:30.056Z,8.27
2022-08-19T01:01:44.229Z,8.75
2022-08-19T01:01:55.728Z,7.43
2022-08-19T01:02:07.843Z,7.53
2022-08-19T01:02:19.757Z,8.68
2022-08-19T01:02:33.427Z,8.65
2022-08-19T01:02:46.764Z,7.03
2022-08-19T01:02:58.331Z,8.20
2022-08-19T01:03:13.509Z,9.77
2022-08-19T01:03:24.986Z,8.68
2022-08-19T01:03:56.756Z,7.90
2022-08-19T01:04:08.297Z,7.38
2022-08-19T01:04:19.702Z,7.57
2022-08-19T01:04:31.340Z,7.90
2022-08-19T01:04:42.722Z,7.95
2022-08-19T01:04:54.487Z,7.88
2022-08-19T01:05:10.317Z,8.55
2022-08-19T01:05:27.323Z,10.23
2022-08-19T01:05:43.173Z,10.50
2022-08-19T01:05:55.994Z,7.75
2022-08-19T01:06:08.055Z,7.88
2022-08-19T01:06:20.899Z,13.23
2022-08-19T01:06:33.642Z,13.77
2022-08-19T01:06:45.116Z,10.32
2022-08-19T01:06:57.928Z,9.80
2022-08-19T01:07:09.439Z,8.60
2022-08-19T01:07:26.662Z,8.10
2022-08-19T01:07:40.927Z,9.60
2022-08-19T01:07:57.352Z,9.73
2022-08-19T01:08:09.676Z,11.20
2022-08-19T01:08:21.538Z,9.65
2022-08-19T01:08:33.074Z,9.88
2022-08-19T01:08:44.647Z,8.45
2022-08-19T01:08:56.095Z,13.48
2022-08-19T01:09:08.251Z,15.35
2022-08-19T01:09:19.654Z,14.13
2022-08-19T01:09:31.915Z,9.38
2022-08-19T01:09:43.372Z,7.30
2022-08-19T01:09:54.807Z,8.65
2022-08-19T01:10:09.087Z,9.00
2022-08-19T01:10:25.049Z,9.63
2022-08-19T01:10:52.037Z,10.27
2022-08-19T01:11:04.595Z,8.52
2022-08-19T01:11:16.147Z,8.13
2022-08-19T01:11:28.794Z,10.50
2022-08-19T01:11:43.978Z,10.88
2022-08-19T01:11:56.627Z,7.78
2022-08-19T01:12:09.105Z,5.55
2022-08-19T01:12:21.356Z,6.50
2022-08-19T01:12:33.659Z,7.20
2022-08-19T01:12:50.192Z,7.57
2022-08-19T01:13:02.612Z,8.93
2022-08-19T01:13:19.977Z,8.40
2022-08-19T01:13:48.980Z,9.02
2022-08-19T01:14:01.796Z,7.35
2022-08-19T01:14:14.330Z,8.57
2022-08-19T01:14:26.439Z,10.77
2022-08-19T01:14:40.681Z,10.70
2022-08-19T01:14:53.232Z,9.00
2022-08-19T01:15:07.656Z,6.65
2022-08-19T01:15:24.611Z,5.68
2022-08-19T01:15:50.950Z,7.15
2022-08-19T01:16:09.068Z,7.47
2022-08-19T01:16:23.442Z,5.70
2022-08-19T01:16:36.516Z,7.57
2022-08-19T01:16:48.109Z,8.30
2022-08-19T01:17:00.147Z,8.02
2022-08-19T01:17:12.491Z,6.80
2022-08-19T01:17:24.100Z,9.05
2022-08-19T01:17:38.751Z,8.68
2022-08-19T01:17:51.453Z,5.93
2022-08-19T01:18:08.502Z,5.55
2022-08-19T01:18:21.329Z,7.55
2022-08-19T01:18:36.318Z,7.65
2022-08-19T01:18:49.021Z,6.35
2022-08-19T01:19:01.406Z,5.20
2022-08-19T01:19:29.876Z,5.88
2022-08-19T01:19:44.737Z,9.32
2022-08-19T01:19:56.426Z,8.45
2022-08-19T01:20:13.531Z,8.93
2022-08-19T01:20:25.229Z,10.23
2022-08-19T01:20:36.693Z,11.35
2022-08-19T01:20:48.846Z,10.60
2022-08-19T01:21:06.705Z,8.95
2022-08-19T01:21:28.852Z,5.05
2022-08-19T01:21:49.377Z,7.00
2022-08-19T01:22:14.359Z,6.65
2022-08-19T01:22:34.886Z,6.68
2022-08-19T01:22:49.362Z,7.85
2022-08-19T01:23:01.807Z,7.80
2022-08-19T01:23:13.793Z,6.93
2022-08-19T01:23:25.418Z,10.57
2022-08-19T01:23:36.888Z,9.02
2022-08-19T01:23:48.579Z,7.97
2022-08-19T01:24:00.399Z,5.13
2022-08-19T01:24:13.985Z,4.32
2022-08-19T01:24:25.450Z,5.07
2022-08-19T01:24:36.891Z,9.70
2022-08-19T01:24:58.343Z,11.27
2022-08-19T01:25:14.714Z,6.57
2022-08-19T01:25:31.908Z,6.93
2022-08-19T01:25:47.407Z,5.65
2022-08-19T01:25:58.950Z,6.00
2022-08-19T01:26:14.064Z,6.20
2022-08-19T01:26:27.732Z,4.60
2022-08-19T01:26:42.068Z,4.47
2022-08-19T01:26:53.602Z,5.72
2022-08-19T01:27:06.792Z,5.53
2022-08-19T01:27:22.218Z,6.10
2022-08-19T01:27:43.192Z,7.00
2022-08-19T01:27:55.697Z,6.32
2022-08-19T01:28:33.842Z,8.07
2022-08-19T01:28:47.485Z,8.07
2022-08-19T01:29:01.015Z,6.60
2022-08-19T01:29:12.796Z,8.63
2022-08-19T01:29:24.508Z,9.23
2022-08-19T01:29:41.002Z,7.45
2022-08-19T01:29:53.319Z,5.03
2022-08-19T01:30:05.480Z,4.00
2022-08-19T01:30:28.557Z,3.50
2022-08-19T01:30:39.947Z,5.35
2022-08-19T01:30:56.276Z,4.63
2022-08-19T01:31:10.287Z,4.43
2022-08-19T01:31:27.316Z,4.55
2022-08-19T01:31:39.306Z,4.60
2022-08-19T01:31:50.863Z,4.63
2022-08-19T01:32:02.984Z,5.88
2022-08-19T01:32:33.389Z,4.63
2022-08-19T01:32:45.690Z,3.60
2022-08-19T01:32:58.072Z,4.13
2022-08-19T01:33:09.522Z,4.30
2022-08-19T01:33:21.584Z,4.88
2022-08-19T01:33:33.016Z,5.85
2022-08-19T01:33:44.437Z,5.13
2022-08-19T01:33:58.034Z,4.20
2022-08-19T01:34:09.489Z,4.72
2022-08-19T01:34:20.919Z,4.07
2022-08-19T01:34:32.463Z,3.50
2022-08-19T01:34:43.895Z,2.20
2022-08-19T01:34:55.306Z,3.92
2022-08-19T01:35:07.621Z,6.80
2022-08-19T01:35:21.343Z,8.43
2022-08-19T01:35:33.376Z,7.45
2022-08-19T01:35:44.830Z,6.13
2022-08-19T01:36:05.122Z,6.47
2022-08-19T01:36:25.071Z,5.85
2022-08-19T01:36:43.307Z,3.20
2022-08-19T01:36:54.715Z,4.15
2022-08-19T01:37:12.600Z,4.65
2022-08-19T01:37:24.984Z,3.88
2022-08-19T01:37:44.935Z,4.43
2022-08-19T01:38:06.926Z,3.92
2022-08-19T01:38:27.924Z,5.50
2022-08-19T01:38:44.308Z,4.68
2022-08-19T01:38:56.734Z,6.05
2022-08-19T01:39:12.791Z,5.38
2022-08-19T01:39:25.989Z,5.47
2022-08-19T01:39:39.881Z,5.03
2022-08-19T01:39:51.371Z,4.13
2022-08-19T01:40:08.897Z,4.03
2022-08-19T01:40:22.901Z,3.63
2022-08-19T01:40:37.229Z,3.97
2022-08-19T01:40:48.691Z,4.25
2022-08-19T01:41:00.067Z,5.85
2022-08-19T01:41:13.234Z,7.00
2022-08-19T01:41:25.230Z,5.15
2022-08-19T01:41:37.636Z,5.38
2022-08-19T01:41:49.676Z,3.80
2022-08-19T01:42:01.137Z,3.38
2022-08-19T01:42:12.563Z,3.88
2022-08-19T01:42:30.212Z,3.35
2022-08-19T01:42:42.258Z,3.60
2022-08-19T01:42:54.799Z,4.93
2022-08-19T01:43:06.747Z,3.65
2022-08-19T01:43:18.173Z,4.70
2022-08-19T01:43:29.540Z,5.47
2022-08-19T01:44:09.711Z,4.75
2022-08-19T01:44:18.558Z,6.03
2022-08-19T01:44:31.107Z,6.50
2022-08-19T01:44:42.503Z,4.97
2022-08-19T01:44:53.949Z,4.25
2022-08-19T01:45:07.268Z,5.57
2022-08-19T01:45:21.006Z,6.90
2022-08-19T01:45:35.577Z,6.35
2022-08-19T01:45:47.296Z,4.72
2022-08-19T01:45:58.715Z,5.55
2022-08-19T01:46:10.171Z,7.88
2022-08-19T01:46:24.978Z,6.50
2022-08-19T01:46:36.767Z,4.20
2022-08-19T01:46:49.314Z,5.28
2022-08-19T01:47:00.726Z,5.90
2022-08-19T01:47:12.214Z,5.28
2022-08-19T01:47:23.591Z,4.32
2022-08-19T01:47:38.436Z,3.22
2022-08-19T01:48:01.211Z,2.97
2022-08-19T01:48:15.091Z,3.63
2022-08-19T01:48:26.544Z,4.60
2022-08-19T01:48:40.754Z,3.53
2022-08-19T01:48:52.249Z,4.10
2022-08-19T01:49:05.712Z,4.15
2022-08-19T01:49:20.447Z,3.53
2022-08-19T01:49:31.944Z,3.63
2022-08-19T01:49:43.361Z,4.60
2022-08-19T01:49:54.733Z,5.65
2022-08-19T01:50:08.364Z,4.68
2022-08-19T01:50:19.799Z,3.25
2022-08-19T01:50:34.774Z,2.40
2022-08-19T01:50:46.230Z,4.03
2022-08-19T01:50:57.645Z,3.75
2022-08-19T01:51:11.319Z,4.72
2022-08-19T01:51:22.834Z,5.30
2022-08-19T01:51:39.727Z,4.05
2022-08-19T01:51:51.895Z,3.67
2022-08-19T01:52:04.671Z,3.55
2022-08-19T01:52:16.079Z,3.30
2022-08-19T01:52:27.487Z,2.85
2022-08-19T01:52:40.329Z,2.58
2022-08-19T01:53:02.309Z,3.30
2022-08-19T01:53:18.200Z,3.25
2022-08-19T01:53:30.631Z,4.93
2022-08-19T01:53:49.525Z,4.78
2022-08-19T01:54:01.025Z,2.85
2022-08-19T01:54:14.270Z,3.42
2022-08-19T01:54:38.760Z,2.33
2022-08-19T01:54:50.147Z,2.35
2022-08-19T01:55:01.541Z,3.80
2022-08-19T01:55:17.780Z,5.07
2022-08-19T01:55:29.249Z,6.70
2022-08-19T01:55:43.514Z,5.13
2022-08-19T01:55:55.190Z,4.15
2022-08-19T01:56:07.683Z,5.22
2022-08-19T01:56:19.693Z,5.68
2022-08-19T01:56:31.147Z,4.25
2022-08-19T01:56:42.669Z,3.50
2022-08-19T01:57:02.270Z,3.08
2022-08-19T01:57:15.360Z,3.47
2022-08-19T01:57:26.859Z,4.75
2022-08-19T01:57:40.248Z,3.78
2022-08-19T01:57:56.511Z,2.67
2022-08-19T01:58:18.054Z,1.88
2022-08-19T01:58:34.804Z,2.15
2022-08-19T01:58:52.508Z,4.40
2022-08-19T01:59:11.228Z,2.47
2022-08-19T01:59:25.056Z,4.40
2022-08-19T01:59:36.633Z,3.42
2022-08-19T01:59:48.129Z,4.88
2022-08-19T02:00:00.093Z,6.15
2022-08-19T02:00:14.775Z,5.72
2022-08-19T02:00:30.545Z,4.40
2022-08-19T02:00:44.286Z,5.28
2022-08-19T02:00:55.839Z,4.03
2022-08-19T02:01:08.043Z,2.95
2022-08-19T02:01:20.148Z,3.20
2022-08-19T02:01:31.654Z,4.40
2022-08-19T02:01:43.688Z,4.57
2022-08-19T02:01:55.094Z,4.10
2022-08-19T02:02:07.157Z,2.60
2022-08-19T02:02:18.569Z,3.33
2022-08-19T02:02:29.989Z,3.13
2022-08-19T02:02:41.370Z,3.20
2022-08-19T02:02:55.652Z,2.88
2022-08-19T02:03:07.056Z,3.33
2022-08-19T02:03:18.748Z,3.65
2022-08-19T02:03:30.328Z,3.35
2022-08-19T02:03:41.746Z,3.70
2022-08-19T02:03:53.151Z,4.15
2022-08-19T02:04:08.869Z,4.43
2022-08-19T02:04:20.263Z,2.60
2022-08-19T02:04:31.689Z,2.30
2022-08-19T02:04:43.067Z,1.88
2022-08-19T02:04:54.442Z,2.35
2022-08-19T02:05:07.710Z,2.50
2022-08-19T02:05:22.264Z,3.33
2022-08-19T02:05:33.684Z,3.20
2022-08-19T02:05:45.601Z,3.15
2022-08-19T02:06:01.727Z,3.72
2022-08-19T02:06:13.284Z,4.07
2022-08-19T02:06:26.853Z,2.10
2022-08-19T02:06:38.710Z,1.40
2022-08-19T02:06:50.108Z,2.33
2022-08-19T02:07:02.088Z,4.95
2022-08-19T02:07:13.517Z,5.30
2022-08-19T02:07:24.986Z,3.83
2022-08-19T02:07:37.754Z,2.20
2022-08-19T02:07:52.728Z,3.33
2022-08-19T02:08:04.903Z,3.03
2022-08-19T02:08:16.302Z,2.13
2022-08-19T02:08:28.321Z,3.30
2022-08-19T02:08:40.805Z,3.15
2022-08-19T02:08:52.208Z,4.53
2022-08-19T02:09:09.593Z,5.57
2022-08-19T02:09:20.976Z,4.47
2022-08-19T02:09:33.431Z,7.38
2022-08-19T02:09:44.859Z,5.10
2022-08-19T02:09:56.258Z,3.95
2022-08-19T02:10:13.348Z,2.83
2022-08-19T02:10:25.013Z,5.40
2022-08-19T02:10:40.818Z,8.05
2022-08-19T02:10:52.300Z,7.00
2022-08-19T02:11:04.341Z,3.05
2022-08-19T02:11:24.938Z,2.97
2022-08-19T02:11:37.894Z,4.00
2022-08-19T02:11:49.332Z,3.45
2022-08-19T02:12:01.050Z,4.85
2022-08-19T02:12:12.461Z,4.18
2022-08-19T02:12:23.897Z,5.25
2022-08-19T02:12:35.328Z,4.10
2022-08-19T02:12:50.800Z,2.83
2022-08-19T02:13:02.251Z,2.05
2022-08-19T02:13:14.437Z,2.67
2022-08-19T02:13:27.254Z,2.60
2022-08-19T02:13:38.674Z,2.47
2022-08-19T02:13:50.161Z,3.33
2022-08-19T02:14:04.137Z,4.85
2022-08-19T02:14:15.509Z,4.78
2022-08-19T02:14:27.052Z,3.72
2022-08-19T02:14:38.433Z,2.90
2022-08-19T02:14:49.831Z,3.35
2022-08-19T02:15:01.363Z,2.75
2022-08-19T02:15:13.342Z,2.00
2022-08-19T02:15:24.863Z,2.60
2022-08-19T02:15:36.273Z,2.83
2022-08-19T02:15:47.728Z,2.55
2022-08-19T02:15:59.118Z,2.60
2022-08-19T02:16:11.517Z,4.82
2022-08-19T02:16:23.086Z,5.13
2022-08-19T02:16:35.102Z,4.72
2022-08-19T02:16:46.503Z,4.13
2022-08-19T02:16:57.904Z,3.78
2022-08-19T02:17:09.672Z,4.35
2022-08-19T02:17:21.073Z,4.47
2022-08-19T02:17:32.709Z,4.10
2022-08-19T02:17:44.115Z,4.57
2022-08-19T02:17:55.495Z,4.25
2022-08-19T02:18:07.119Z,3.92
2022-08-19T02:18:18.816Z,3.75
2022-08-19T02:18:30.203Z,3.92
2022-08-19T02:18:41.594Z,5.78
2022-08-19T02:18:52.988Z,4.93
2022-08-19T02:19:04.916Z,4.18
2022-08-19T02:19:16.319Z,5.20
2022-08-19T02:19:27.796Z,5.50
2022-08-19T02:19:39.508Z,4.85
2022-08-19T02:19:52.507Z,6.88
2022-08-19T02:20:05.008Z,6.30
2022-08-19T02:20:17.274Z,7.97
2022-08-19T02:20:28.712Z,7.72
2022-08-19T02:20:41.923Z,7.60
2022-08-19T02:20:53.532Z,5.10
2022-08-19T02:21:05.161Z,5.13
2022-08-19T02:21:18.362Z,4.13
2022-08-19T02:21:30.760Z,3.42
2022-08-19T02:21:42.229Z,3.90
2022-08-19T02:21:53.678Z,6.18
2022-08-19T02:22:05.602Z,6.38
2022-08-19T02:22:17.073Z,4.28
2022-08-19T02:22:28.547Z,3.25
2022-08-19T02:22:41.014Z,2.95
2022-08-19T02:22:52.619Z,4.53
2022-08-19T02:23:04.253Z,4.95
2022-08-19T02:23:16.990Z,4.30
2022-08-19T02:23:28.397Z,3.10
2022-08-19T02:23:39.846Z,3.95
2022-08-19T02:23:51.598Z,5.55
2022-08-19T02:24:03.355Z,5.65
2022-08-19T02:24:14.743Z,5.28
2022-08-19T02:24:27.485Z,2.78
2022-08-19T02:24:38.872Z,2.58
2022-08-19T02:24:50.250Z,2.10
2022-08-19T02:25:02.451Z,2.90
2022-08-19T02:25:15.079Z,3.55
2022-08-19T02:25:26.466Z,3.80
2022-08-19T02:25:38.699Z,4.20
2022-08-19T02:25:52.719Z,4.93
2022-08-19T02:26:04.192Z,5.78
2022-08-19T02:26:16.687Z,5.07
2022-08-19T02:26:28.287Z,3.17
2022-08-19T02:26:39.969Z,3.15
2022-08-19T02:26:51.642Z,3.55
2022-08-19T02:27:03.329Z,3.25
2022-08-19T02:27:15.542Z,3.00
2022-08-19T02:27:26.914Z,3.78
2022-08-19T02:27:39.287Z,3.47
2022-08-19T02:27:50.676Z,3.65
2022-08-19T02:28:02.274Z,3.67
2022-08-19T02:28:17.898Z,3.70
2022-08-19T02:28:30.165Z,5.38
2022-08-19T02:28:42.370Z,5.40
2022-08-19T02:28:54.562Z,4.40
2022-08-19T02:29:05.995Z,5.13
2022-08-19T02:29:17.617Z,4.30
2022-08-19T02:29:29.045Z,2.45
2022-08-19T02:29:40.481Z,3.60
2022-08-19T02:29:52.373Z,5.20
2022-08-19T02:30:05.760Z,4.40
2022-08-19T02:30:18.026Z,2.45
2022-08-19T02:30:29.494Z,1.85
2022-08-19T02:30:42.445Z,1.35
2022-08-19T02:30:53.874Z,1.70
2022-08-19T02:31:19.850Z,3.28
2022-08-19T02:31:31.257Z,6.90
2022-08-19T02:31:42.669Z,3.95
2022-08-19T02:31:54.205Z,3.75
2022-08-19T02:32:05.812Z,2.75
2022-08-19T02:32:18.448Z,2.83
2022-08-19T02:32:29.855Z,2.47
2022-08-19T02:32:54.276Z,3.58
2022-08-19T02:33:06.068Z,3.80
2022-08-19T02:33:17.768Z,3.25
2022-08-19T02:33:29.792Z,3.60
2022-08-19T02:33:42.197Z,4.40
2022-08-19T02:33:56.581Z,2.53
2022-08-19T02:34:08.388Z,2.92
2022-08-19T02:34:19.851Z,4.90
2022-08-19T02:34:31.340Z,7.63
2022-08-19T02:34:42.848Z,8.88
2022-08-19T02:34:54.244Z,8.93
2022-08-19T02:35:12.099Z,7.22
2022-08-19T02:35:24.358Z,1.77
2022-08-19T02:35:35.877Z,2.75
2022-08-19T02:35:47.804Z,3.08
2022-08-19T02:35:59.207Z,2.75
2022-08-19T02:36:12.631Z,2.78
2022-08-19T02:36:26.102Z,2.55
2022-08-19T02:36:37.536Z,4.28
2022-08-19T02:36:54.003Z,4.95
2022-08-19T02:37:05.471Z,3.63
2022-08-19T02:37:17.346Z,3.55
2022-08-19T02:37:28.783Z,3.38
2022-08-19T02:37:41.171Z,3.35
2022-08-19T02:37:52.672Z,2.00
2022-08-19T02:38:04.102Z,1.92
2022-08-19T02:38:16.148Z,3.47
2022-08-19T02:38:27.627Z,3.20
2022-08-19T02:38:39.670Z,2.65
2022-08-19T02:38:54.880Z,2.95
2022-08-19T02:39:06.799Z,5.00
2022-08-19T02:39:19.018Z,6.45
2022-08-19T02:39:30.616Z,3.85
2022-08-19T02:39:42.101Z,3.17
2022-08-19T02:39:53.941Z,3.13
2022-08-19T02:40:12.492Z,2.85
2022-08-19T02:40:24.262Z,2.58
2022-08-19T02:40:35.798Z,3.22
2022-08-19T02:40:51.853Z,2.63
2022-08-19T02:41:07.935Z,1.67
2022-08-19T02:41:26.596Z,3.08
2022-08-19T02:41:38.578Z,3.15
2022-08-19T02:41:49.967Z,2.75
2022-08-19T02:42:01.367Z,1.63
2022-08-19T02:42:12.797Z,2.20
2022-08-19T02:42:24.498Z,4.05
2022-08-19T02:42:35.947Z,5.18
2022-08-19T02:42:48.674Z,3.58
2022-08-19T02:43:00.195Z,3.10
2022-08-19T02:43:11.602Z,4.20
2022-08-19T02:43:24.249Z,3.47
2022-08-19T02:43:36.488Z,3.38
2022-08-19T02:44:29.409Z,2.83
2022-08-19T02:44:29.534Z,2.45
2022-08-19T02:44:44.817Z,2.83
2022-08-19T02:44:57.039Z,3.03
2022-08-19T02:45:08.844Z,4.35
2022-08-19T02:45:21.112Z,4.70
2022-08-19T02:45:34.641Z,3.20
2022-08-19T02:45:46.063Z,3.03
2022-08-19T02:45:57.735Z,2.72
2022-08-19T02:46:17.718Z,4.05
2022-08-19T02:46:31.831Z,5.10
2022-08-19T02:46:43.313Z,5.38
2022-08-19T02:46:54.773Z,6.05
2022-08-19T02:47:06.410Z,5.22
2022-08-19T02:47:18.283Z,4.20
2022-08-19T02:47:29.758Z,3.63
2022-08-19T02:47:41.500Z,2.85
2022-08-19T02:47:52.898Z,1.70
2022-08-19T02:48:10.126Z,1.65
2022-08-19T02:48:33.178Z,4.45
2022-08-19T02:48:44.697Z,4.10
2022-08-19T02:49:00.314Z,4.32
2022-08-19T02:49:11.726Z,2.58
2022-08-19T02:49:23.170Z,1.88
2022-08-19T02:49:34.837Z,2.00
2022-08-19T02:49:46.774Z,3.40
2022-08-19T02:49:58.199Z,4.50
2022-08-19T02:50:10.429Z,6.72
2022-08-19T02:50:21.836Z,4.25
2022-08-19T02:50:33.352Z,3.97
2022-08-19T02:50:53.133Z,4.32
2022-08-19T02:51:05.254Z,5.82
2022-08-19T02:51:21.048Z,6.95
2022-08-19T02:51:37.820Z,5.82
2022-08-19T02:51:49.338Z,2.65
2022-08-19T02:52:00.736Z,4.25
2022-08-19T02:52:12.643Z,4.05
2022-08-19T02:52:24.019Z,2.08
2022-08-19T02:52:35.678Z,1.50
2022-08-19T02:52:47.146Z,2.33
2022-08-19T02:52:58.827Z,2.45
2022-08-19T02:53:10.924Z,2.80
2022-08-19T02:53:26.689Z,2.08
2022-08-19T02:53:38.067Z,3.22
2022-08-19T02:53:49.645Z,4.63
2022-08-19T02:54:01.622Z,6.47
2022-08-19T02:54:14.649Z,4.43
2022-08-19T02:54:26.079Z,3.95
2022-08-19T02:54:37.507Z,3.90
2022-08-19T02:54:48.897Z,4.05
2022-08-19T02:55:00.815Z,3.10
2022-08-19T02:55:12.254Z,2.30
2022-08-19T02:55:23.727Z,2.05
2022-08-19T02:55:46.021Z,3.00
2022-08-19T02:55:58.254Z,3.65
2022-08-19T02:56:09.726Z,4.00
2022-08-19T02:56:21.646Z,4.65
2022-08-19T02:56:35.961Z,3.78
2022-08-19T02:56:47.358Z,5.20